Time;durP1;ratioP1;P1;durP2;ratioP2;P2;SDS_P1;SDS_P2;PMS_P1;PMS_P2;Temp;Humidity;BMP_temperature;BMP_pressure;BME280_temperature;BME280_humidity;BME280_pressure;Samples;Min_cycle;Max_cycle;Signal;HPM_P1;HPM_P2
2022/07/18 00:02:00;;;;;;;18.58;3.35;;;;;;;;;;4901845;29;20040;-62
2022/07/18 00:04:27;;;;;;;26.13;3.83;;;;;;;;;;4901844;29;20510;-61
2022/07/18 00:06:54;;;;;;;16.35;3.55;;;;;;;;;;4915052;29;20036;-62
2022/07/18 00:09:23;;;;;;;32.92;4.35;;;;;;;;;;4909518;29;20055;-62
2022/07/18 00:11:50;;;;;;;30.52;4.32;;;;;;;;;;4901760;29;20048;-62
2022/07/18 00:14:18;;;;;;;17.35;3.42;;;;;;;;;;4901744;29;20078;-61
2022/07/18 00:16:44;;;;;;;19.10;3.65;;;;;;;;;;4921646;29;20054;-64
2022/07/18 00:19:11;;;;;;;43.60;4.95;;;;;;;;;;4914894;29;20139;-64
2022/07/18 00:21:38;;;;;;;31.48;4.60;;;;;;;;;;4916995;29;20100;-65
2022/07/18 00:24:04;;;;;;;26.20;3.83;;;;;;;;;;4862441;29;1159446;-64
2022/07/18 00:26:31;;;;;;;36.35;4.97;;;;;;;;;;4915711;29;20244;-62
2022/07/18 00:28:58;;;;;;;20.00;3.78;;;;;;;;;;4900524;29;20494;-63
2022/07/18 00:31:25;;;;;;;31.50;4.72;;;;;;;;;;4917270;29;20830;-63
2022/07/18 00:33:52;;;;;;;53.05;5.43;;;;;;;;;;4917283;29;20064;-62
2022/07/18 00:36:18;;;;;;;13.15;3.05;;;;;;;;;;4900836;29;20044;-62
2022/07/18 00:38:45;;;;;;;12.15;3.65;;;;;;;;;;4912352;29;20044;-63
2022/07/18 00:41:15;;;;;;;22.05;3.28;;;;;;;;;;4958422;23;20060;-62
2022/07/18 00:43:42;;;;;;;39.53;4.43;;;;;;;;;;4911348;29;20040;-60
2022/07/18 00:46:11;;;;;;;15.60;2.97;;;;;;;;;;4906492;29;20044;-60
2022/07/18 00:48:42;;;;;;;52.30;5.43;;;;;;;;;;4898717;29;20040;-61
2022/07/18 00:54:04;;;;;;;47.72;5.20;;;;;;;;;;5227688;23;20047;-58
2022/07/18 00:56:30;;;;;;;36.60;4.97;;;;;;;;;;4969167;28;20122;-57
2022/07/18 00:58:58;;;;;;;48.53;5.22;;;;;;;;;;4956399;28;20430;-60
2022/07/18 01:01:42;;;;;;;47.15;5.80;;;;;;;;;;4953716;28;20081;-60
2022/07/18 01:04:11;;;;;;;31.73;4.45;;;;;;;;;;4969682;28;20034;-61
2022/07/18 01:06:38;;;;;;;22.77;4.10;;;;;;;;;;4946601;28;20574;-61
2022/07/18 01:09:04;;;;;;;14.02;3.50;;;;;;;;;;4969065;28;20035;-60
2022/07/18 01:11:31;;;;;;;41.80;4.72;;;;;;;;;;4952393;28;20286;-60
2022/07/18 01:13:57;;;;;;;29.60;4.07;;;;;;;;;;4956394;28;20121;-59
2022/07/18 01:16:24;;;;;;;30.92;4.43;;;;;;;;;;4961646;28;20491;-60
2022/07/18 01:18:51;;;;;;;21.50;4.15;;;;;;;;;;4948036;28;20122;-60
2022/07/18 01:21:17;;;;;;;50.35;6.13;;;;;;;;;;4951821;28;20196;-60
2022/07/18 01:23:44;;;;;;;17.77;3.67;;;;;;;;;;4969469;28;20054;-60
2022/07/18 01:26:12;;;;;;;52.72;5.53;;;;;;;;;;4953784;28;20113;-60
2022/07/18 01:28:38;;;;;;;16.80;4.40;;;;;;;;;;4972438;28;20035;-60
2022/07/18 01:31:05;;;;;;;17.30;4.00;;;;;;;;;;4947220;28;20414;-60
2022/07/18 01:33:33;;;;;;;23.25;4.20;;;;;;;;;;4969259;28;20035;-60
2022/07/18 01:36:02;;;;;;;51.83;5.53;;;;;;;;;;4968841;28;20451;-60
2022/07/18 01:38:30;;;;;;;22.30;4.30;;;;;;;;;;4951439;28;20127;-60
2022/07/18 01:40:58;;;;;;;64.30;6.70;;;;;;;;;;4973031;28;20471;-60
2022/07/18 01:43:24;;;;;;;35.05;4.70;;;;;;;;;;4970162;28;20053;-59
2022/07/18 01:45:51;;;;;;;40.47;5.78;;;;;;;;;;4968527;28;20125;-60
2022/07/18 01:48:19;;;;;;;14.63;4.10;;;;;;;;;;4951278;28;20054;-60
2022/07/18 01:50:45;;;;;;;23.63;3.95;;;;;;;;;;4968563;28;20106;-60
2022/07/18 01:53:12;;;;;;;44.75;5.40;;;;;;;;;;4970105;28;20118;-61
2022/07/18 01:55:39;;;;;;;34.95;5.03;;;;;;;;;;4971797;28;20118;-59
2022/07/18 01:58:06;;;;;;;32.28;4.43;;;;;;;;;;4968660;28;20062;-59
2022/07/18 02:00:32;;;;;;;25.45;5.03;;;;;;;;;;4969058;28;20547;-61
2022/07/18 02:02:59;;;;;;;23.85;3.80;;;;;;;;;;4968286;28;20045;-61
2022/07/18 02:05:25;;;;;;;42.88;5.28;;;;;;;;;;4968556;28;20110;-61
2022/07/18 02:07:52;;;;;;;8.38;3.08;;;;;;;;;;4967393;28;20130;-61
2022/07/18 02:10:20;;;;;;;21.27;3.67;;;;;;;;;;4968324;28;20556;-61
2022/07/18 02:12:46;;;;;;;23.55;3.78;;;;;;;;;;4967952;28;20077;-60
2022/07/18 02:15:14;;;;;;;29.25;4.18;;;;;;;;;;4968268;28;20046;-61
2022/07/18 02:17:41;;;;;;;20.75;3.72;;;;;;;;;;4938469;28;20079;-61
2022/07/18 02:20:09;;;;;;;54.92;5.80;;;;;;;;;;4970531;28;20049;-62
2022/07/18 02:22:36;;;;;;;22.58;4.32;;;;;;;;;;4970842;28;20554;-61
2022/07/18 02:25:03;;;;;;;18.13;3.53;;;;;;;;;;4968298;28;20136;-63
2022/07/18 02:27:29;;;;;;;38.85;5.13;;;;;;;;;;4967842;28;20027;-63
2022/07/18 02:29:57;;;;;;;16.77;3.85;;;;;;;;;;4968464;28;20077;-64
2022/07/18 02:32:23;;;;;;;36.80;5.13;;;;;;;;;;4968569;28;20057;-62
2022/07/18 02:34:51;;;;;;;38.55;5.53;;;;;;;;;;4955559;28;20093;-62
2022/07/18 02:37:18;;;;;;;44.38;5.50;;;;;;;;;;4967656;28;20089;-62
2022/07/18 02:39:45;;;;;;;13.85;3.53;;;;;;;;;;4968080;28;20503;-62
2022/07/18 02:42:11;;;;;;;57.28;6.00;;;;;;;;;;4967692;28;20039;-62
2022/07/18 02:44:38;;;;;;;32.22;4.75;;;;;;;;;;4967617;28;20525;-62
2022/07/18 02:47:05;;;;;;;49.28;5.72;;;;;;;;;;4970653;28;20043;-62
2022/07/18 02:49:34;;;;;;;42.58;5.60;;;;;;;;;;4970030;28;20130;-62
2022/07/18 02:52:03;;;;;;;17.33;3.85;;;;;;;;;;4968081;28;20117;-62
2022/07/18 02:54:30;;;;;;;29.52;5.47;;;;;;;;;;4950515;28;20046;-62
2022/07/18 02:56:57;;;;;;;31.50;4.78;;;;;;;;;;4967706;28;20039;-62
2022/07/18 02:59:24;;;;;;;37.40;6.15;;;;;;;;;;4968330;28;20043;-62
2022/07/18 03:01:50;;;;;;;16.30;4.07;;;;;;;;;;4972688;28;20121;-62
2022/07/18 03:04:17;;;;;;;47.30;5.72;;;;;;;;;;4967116;28;20042;-62
2022/07/18 03:06:45;;;;;;;16.98;4.18;;;;;;;;;;4948492;28;20039;-61
2022/07/18 03:09:12;;;;;;;19.45;4.78;;;;;;;;;;4967535;28;20042;-61
2022/07/18 03:11:38;;;;;;;32.47;5.10;;;;;;;;;;4967904;28;20075;-62
2022/07/18 03:14:05;;;;;;;27.88;4.80;;;;;;;;;;4970696;28;20038;-62
2022/07/18 03:16:31;;;;;;;17.27;4.38;;;;;;;;;;4950261;28;20118;-62
2022/07/18 03:18:58;;;;;;;38.05;5.90;;;;;;;;;;4961281;28;20047;-61
2022/07/18 03:21:25;;;;;;;27.40;4.85;;;;;;;;;;4967744;28;20066;-61
2022/07/18 03:23:52;;;;;;;18.00;4.85;;;;;;;;;;4967282;28;20039;-63
2022/07/18 03:26:18;;;;;;;39.83;5.30;;;;;;;;;;4969019;28;20073;-62
2022/07/18 03:28:45;;;;;;;15.52;4.32;;;;;;;;;;4971473;28;20043;-63
2022/07/18 03:31:11;;;;;;;16.73;4.43;;;;;;;;;;4950069;28;20130;-63
2022/07/18 03:33:38;;;;;;;30.85;5.35;;;;;;;;;;4967599;28;20035;-63
2022/07/18 03:36:05;;;;;;;31.58;5.05;;;;;;;;;;4967784;28;20042;-63
2022/07/18 03:38:32;;;;;;;35.28;5.28;;;;;;;;;;4967132;28;20082;-63
2022/07/18 03:40:59;;;;;;;44.00;5.78;;;;;;;;;;4954425;28;20134;-63
2022/07/18 03:43:25;;;;;;;21.75;4.65;;;;;;;;;;4968342;28;20043;-63
2022/07/18 03:45:52;;;;;;;14.10;3.88;;;;;;;;;;4966972;28;20070;-61
2022/07/18 03:48:18;;;;;;;24.98;4.88;;;;;;;;;;4967177;28;20070;-60
2022/07/18 03:50:45;;;;;;;42.72;5.15;;;;;;;;;;4967602;28;20159;-61
2022/07/18 03:53:11;;;;;;;45.45;5.47;;;;;;;;;;4952233;28;20110;-62
2022/07/18 03:55:38;;;;;;;34.33;5.03;;;;;;;;;;4972666;28;20081;-62
2022/07/18 03:58:04;;;;;;;22.13;4.45;;;;;;;;;;4969075;28;20058;-61
2022/07/18 04:00:31;;;;;;;58.20;6.03;;;;;;;;;;4971030;28;20039;-58
2022/07/18 04:02:58;;;;;;;23.88;4.15;;;;;;;;;;4970024;28;20043;-59
2022/07/18 04:05:30;;;;;;;28.48;4.18;;;;;;;;;;4970762;28;20042;-59
2022/07/18 04:07:57;;;;;;;12.70;3.80;;;;;;;;;;4955919;28;20133;-59
2022/07/18 04:10:24;;;;;;;24.20;4.07;;;;;;;;;;4971195;28;20039;-58
2022/07/18 04:12:51;;;;;;;30.02;4.55;;;;;;;;;;4945671;28;20434;-58
2022/07/18 04:15:19;;;;;;;26.73;4.28;;;;;;;;;;4970461;28;20047;-62
2022/07/18 04:17:46;;;;;;;27.30;4.25;;;;;;;;;;4970313;28;20043;-61
2022/07/18 04:20:14;;;;;;;45.55;4.90;;;;;;;;;;4972411;28;20077;-61
2022/07/18 04:22:44;;;;;;;12.65;3.50;;;;;;;;;;4973449;28;20082;-61
2022/07/18 04:25:11;;;;;;;38.33;4.50;;;;;;;;;;4970417;28;20127;-59
2022/07/18 04:27:37;;;;;;;30.50;4.32;;;;;;;;;;4970214;28;20407;-59
2022/07/18 04:30:04;;;;;;;38.22;5.03;;;;;;;;;;4970049;28;20038;-60
2022/07/18 04:32:31;;;;;;;37.95;5.15;;;;;;;;;;4969967;28;20469;-59
2022/07/18 04:34:58;;;;;;;87.10;8.02;;;;;;;;;;4974687;28;20399;-59
2022/07/18 04:37:24;;;;;;;53.35;5.13;;;;;;;;;;4970265;28;20093;-59
2022/07/18 04:39:51;;;;;;;32.70;4.78;;;;;;;;;;4969863;28;20102;-59
2022/07/18 04:42:17;;;;;;;43.63;4.75;;;;;;;;;;4969912;28;20062;-59
2022/07/18 04:44:44;;;;;;;59.00;6.10;;;;;;;;;;4969847;28;20166;-58
2022/07/18 04:47:10;;;;;;;42.10;4.80;;;;;;;;;;4938684;28;20138;-59
2022/07/18 04:49:37;;;;;;;24.88;3.80;;;;;;;;;;4972364;28;20039;-57
2022/07/18 04:52:03;;;;;;;24.00;3.65;;;;;;;;;;4969673;28;20557;-58
2022/07/18 04:54:30;;;;;;;47.53;4.88;;;;;;;;;;4969180;28;20043;-57
2022/07/18 04:56:56;;;;;;;42.63;4.03;;;;;;;;;;4970088;28;20466;-57
2022/07/18 04:59:23;;;;;;;28.83;3.60;;;;;;;;;;4970183;28;20039;-58
2022/07/18 05:01:49;;;;;;;14.10;3.20;;;;;;;;;;4956346;28;20047;-59
2022/07/18 05:04:16;;;;;;;29.02;3.75;;;;;;;;;;4968291;28;20062;-59
2022/07/18 05:06:43;;;;;;;19.30;3.53;;;;;;;;;;4963052;28;20039;-59
2022/07/18 05:09:10;;;;;;;21.30;3.35;;;;;;;;;;4966572;28;20045;-60
2022/07/18 05:11:36;;;;;;;35.53;3.88;;;;;;;;;;4969589;28;20596;-61
2022/07/18 05:14:03;;;;;;;26.48;3.58;;;;;;;;;;4973016;28;20142;-61
2022/07/18 05:16:29;;;;;;;37.92;3.85;;;;;;;;;;4970620;28;20050;-61
2022/07/18 05:18:56;;;;;;;26.17;3.50;;;;;;;;;;4969277;28;20443;-61
2022/07/18 05:21:23;;;;;;;59.30;5.07;;;;;;;;;;4968399;28;20039;-62
2022/07/18 05:23:49;;;;;;;18.23;3.40;;;;;;;;;;4969226;28;20136;-61
2022/07/18 05:26:16;;;;;;;42.22;4.50;;;;;;;;;;4970916;28;20053;-59
2022/07/18 05:28:42;;;;;;;16.42;2.83;;;;;;;;;;4972289;28;20122;-59
2022/07/18 05:31:09;;;;;;;15.32;3.25;;;;;;;;;;4969155;28;20047;-60
2022/07/18 05:33:36;;;;;;;32.95;4.15;;;;;;;;;;4968795;28;20098;-60
2022/07/18 05:36:03;;;;;;;32.75;3.88;;;;;;;;;;4969114;28;20070;-59
2022/07/18 05:38:30;;;;;;;19.98;2.95;;;;;;;;;;4951672;28;20456;-58
2022/07/18 05:40:57;;;;;;;33.65;3.60;;;;;;;;;;4973573;28;20046;-60
2022/07/18 05:43:23;;;;;;;34.25;3.80;;;;;;;;;;4968474;28;20143;-59
2022/07/18 05:45:50;;;;;;;15.82;2.35;;;;;;;;;;4968137;28;20053;-59
2022/07/18 05:48:16;;;;;;;27.75;3.55;;;;;;;;;;4968794;28;20066;-60
2022/07/18 05:50:44;;;;;;;25.20;3.80;;;;;;;;;;4968715;28;20043;-59
2022/07/18 05:53:11;;;;;;;45.97;4.60;;;;;;;;;;4953583;28;20183;-58
2022/07/18 05:55:37;;;;;;;34.35;4.30;;;;;;;;;;4970801;28;20035;-60
2022/07/18 05:58:04;;;;;;;23.02;3.05;;;;;;;;;;4968286;28;20081;-60
2022/07/18 06:00:31;;;;;;;25.60;3.17;;;;;;;;;;4968415;28;20045;-61
2022/07/18 06:02:57;;;;;;;24.15;2.83;;;;;;;;;;4967823;28;20440;-62
2022/07/18 06:05:24;;;;;;;63.90;5.40;;;;;;;;;;4961064;28;20457;-61
2022/07/18 06:07:53;;;;;;;67.78;5.63;;;;;;;;;;4970921;28;20042;-61
2022/07/18 06:10:20;;;;;;;38.55;3.78;;;;;;;;;;4967479;28;20046;-61
2022/07/18 06:12:46;;;;;;;43.10;4.20;;;;;;;;;;4968014;28;20163;-61
2022/07/18 06:15:13;;;;;;;19.83;2.80;;;;;;;;;;4968587;28;20097;-61
2022/07/18 06:17:40;;;;;;;32.13;3.83;;;;;;;;;;4967895;28;20126;-63
2022/07/18 06:20:07;;;;;;;76.30;6.32;;;;;;;;;;4971504;28;20039;-61
2022/07/18 06:22:35;;;;;;;67.57;5.88;;;;;;;;;;4969159;28;20043;-61
2022/07/18 06:25:01;;;;;;;22.73;2.83;;;;;;;;;;4968031;28;20125;-62
2022/07/18 06:27:28;;;;;;;47.25;4.63;;;;;;;;;;4967131;28;20085;-62
2022/07/18 06:29:55;;;;;;;27.60;3.25;;;;;;;;;;4967765;28;20562;-62
2022/07/18 06:32:21;;;;;;;55.83;4.95;;;;;;;;;;4968662;28;20129;-62
2022/07/18 06:34:48;;;;;;;30.98;3.80;;;;;;;;;;4971170;28;20047;-62
2022/07/18 06:37:14;;;;;;;48.33;4.57;;;;;;;;;;4967193;28;20125;-62
2022/07/18 06:39:41;;;;;;;38.10;4.03;;;;;;;;;;4964286;28;20411;-62
2022/07/18 06:42:07;;;;;;;42.35;4.28;;;;;;;;;;4953883;28;20035;-62
2022/07/18 06:44:34;;;;;;;42.47;4.20;;;;;;;;;;4966671;28;20538;-62
2022/07/18 06:47:00;;;;;;;44.17;3.97;;;;;;;;;;4969346;28;20047;-62
2022/07/18 06:49:27;;;;;;;66.05;6.25;;;;;;;;;;4966601;28;20050;-62
2022/07/18 06:51:54;;;;;;;30.30;3.45;;;;;;;;;;4965673;28;20038;-62
2022/07/18 06:54:27;;;;;;;58.28;5.55;;;;;;;;;;4965265;28;20546;-61
2022/07/18 06:56:54;;;;;;;50.95;4.80;;;;;;;;;;4965792;28;20093;-62
2022/07/18 06:59:21;;;;;;;39.90;4.25;;;;;;;;;;4968994;28;20484;-62
2022/07/18 07:01:48;;;;;;;57.95;5.25;;;;;;;;;;4957800;28;20126;-61
2022/07/18 07:04:14;;;;;;;45.20;4.53;;;;;;;;;;4965706;28;20170;-62
2022/07/18 07:06:41;;;;;;;47.10;4.25;;;;;;;;;;4967209;28;20049;-62
2022/07/18 07:09:08;;;;;;;64.05;5.50;;;;;;;;;;4949665;28;20089;-62
2022/07/18 07:11:34;;;;;;;64.00;5.47;;;;;;;;;;4967001;28;20070;-62
2022/07/18 07:14:01;;;;;;;22.10;3.33;;;;;;;;;;4971767;28;20522;-62
2022/07/18 07:16:28;;;;;;;28.38;3.20;;;;;;;;;;4967952;28;20484;-62
2022/07/18 07:18:55;;;;;;;40.40;4.15;;;;;;;;;;4967293;28;20042;-61
2022/07/18 07:21:21;;;;;;;32.78;3.38;;;;;;;;;;4967255;28;20131;-61
2022/07/18 07:23:48;;;;;;;30.15;3.45;;;;;;;;;;4966572;28;20122;-62
2022/07/18 07:26:14;;;;;;;62.13;5.30;;;;;;;;;;4969056;28;20126;-61
2022/07/18 07:28:42;;;;;;;37.88;3.97;;;;;;;;;;4969867;28;20399;-62
2022/07/18 07:31:08;;;;;;;12.77;2.13;;;;;;;;;;4970236;28;20158;-62
2022/07/18 07:33:38;;;;;;;42.90;4.38;;;;;;;;;;4970738;28;20105;-62
2022/07/18 07:36:05;;;;;;;18.40;2.65;;;;;;;;;;4971018;28;20503;-60
2022/07/18 07:38:32;;;;;;;52.17;5.00;;;;;;;;;;4970067;28;20059;-66
2022/07/18 07:41:01;;;;;;;30.85;3.45;;;;;;;;;;4975659;28;20669;-63
2022/07/18 07:43:27;;;;;;;37.47;3.92;;;;;;;;;;4971595;28;20045;-65
2022/07/18 07:45:55;;;;;;;34.67;4.50;;;;;;;;;;4969143;28;20078;-62
2022/07/18 07:48:23;;;;;;;44.03;4.57;;;;;;;;;;4970822;28;20519;-63
2022/07/18 07:50:50;;;;;;;35.38;4.70;;;;;;;;;;4970975;28;20062;-61
2022/07/18 07:53:17;;;;;;;39.10;4.00;;;;;;;;;;4971902;28;20057;-64
2022/07/18 07:55:43;;;;;;;34.13;4.15;;;;;;;;;;4973860;28;20133;-63
2022/07/18 07:58:10;;;;;;;32.08;3.85;;;;;;;;;;4961963;28;20145;-62
2022/07/18 08:00:37;;;;;;;30.10;3.92;;;;;;;;;;4969124;28;20122;-63
2022/07/18 08:03:04;;;;;;;53.95;4.60;;;;;;;;;;4959149;28;20035;-63
2022/07/18 08:05:33;;;;;;;38.47;4.28;;;;;;;;;;4970996;28;20043;-64
2022/07/18 08:08:00;;;;;;;27.63;3.67;;;;;;;;;;4967109;28;20074;-64
2022/07/18 08:10:27;;;;;;;37.75;4.38;;;;;;;;;;4970937;28;20071;-62
2022/07/18 08:12:54;;;;;;;25.02;3.42;;;;;;;;;;4970769;28;20046;-64
2022/07/18 08:15:21;;;;;;;42.90;4.63;;;;;;;;;;4969705;28;20097;-63
2022/07/18 08:17:47;;;;;;;40.55;4.88;;;;;;;;;;4970386;28;20075;-63
2022/07/18 08:20:16;;;;;;;55.40;5.35;;;;;;;;;;4972456;28;20051;-63
2022/07/18 08:22:52;;;;;;;22.02;3.13;;;;;;;;;;4972483;28;20124;-60
2022/07/18 08:25:19;;;;;;;21.30;3.00;;;;;;;;;;4970220;28;20075;-63
2022/07/18 08:27:46;;;;;;;24.17;3.63;;;;;;;;;;4970304;28;20455;-63
2022/07/18 08:30:12;;;;;;;25.95;4.15;;;;;;;;;;4970415;28;20077;-65
2022/07/18 08:32:39;;;;;;;37.85;5.05;;;;;;;;;;4970853;28;20043;-65
2022/07/18 08:35:06;;;;;;;32.35;4.57;;;;;;;;;;4973642;28;20046;-62
2022/07/18 08:37:33;;;;;;;33.67;4.20;;;;;;;;;;4970319;28;20109;-61
2022/07/18 08:39:59;;;;;;;29.13;3.85;;;;;;;;;;4969767;28;20114;-61
2022/07/18 08:42:26;;;;;;;62.17;5.95;;;;;;;;;;4969936;28;20050;-63
2022/07/18 08:44:56;;;;;;;34.60;4.82;;;;;;;;;;4969845;28;20116;-61
2022/07/18 08:47:26;;;;;;;52.00;4.93;;;;;;;;;;4970135;28;20201;-62
2022/07/18 08:49:56;;;;;;;19.42;3.55;;;;;;;;;;4974424;28;20125;-64
2022/07/18 08:52:22;;;;;;;87.47;7.88;;;;;;;;;;4968019;28;20137;-61
2022/07/18 08:55:10;;;;;;;25.23;4.25;;;;;;;;;;4966099;28;20039;-62
2022/07/18 08:57:52;;;;;;;25.15;3.58;;;;;;;;;;4967159;28;20055;-62
2022/07/18 09:00:20;;;;;;;23.63;3.15;;;;;;;;;;4954132;28;20109;-62
2022/07/18 09:02:55;;;;;;;46.60;4.50;;;;;;;;;;4969247;28;20051;-59
2022/07/18 09:05:22;;;;;;;33.30;4.85;;;;;;;;;;4944104;28;20047;-61
2022/07/18 09:08:15;;;;;;;26.08;4.38;;;;;;;;;;4955684;28;20051;-59
2022/07/18 09:10:52;;;;;;;13.45;3.30;;;;;;;;;;4972058;28;20479;-65
2022/07/18 09:13:21;;;;;;;45.28;5.72;;;;;;;;;;4969029;28;20082;-62
2022/07/18 09:15:57;;;;;;;27.08;3.45;;;;;;;;;;4969388;28;20126;-60
2022/07/18 09:18:28;;;;;;;42.67;4.28;;;;;;;;;;4959995;28;20046;-64
2022/07/18 09:21:07;;;;;;;29.98;3.58;;;;;;;;;;4968920;28;20463;-64
2022/07/18 09:23:35;;;;;;;54.87;6.10;;;;;;;;;;4967313;28;20067;-64
2022/07/18 09:26:03;;;;;;;36.05;5.03;;;;;;;;;;4965511;28;20072;-66
2022/07/18 09:28:45;;;;;;;60.35;5.53;;;;;;;;;;4957650;28;20081;-66
2022/07/18 09:31:32;;;;;;;16.10;4.05;;;;;;;;;;4966278;28;20050;-66
2022/07/18 09:34:00;;;;;;;24.25;3.25;;;;;;;;;;4968693;28;20113;-66
2022/07/18 09:36:27;;;;;;;27.50;3.80;;;;;;;;;;4968843;28;20101;-67
2022/07/18 09:38:54;;;;;;;33.03;4.03;;;;;;;;;;4968685;28;20035;-68
2022/07/18 09:41:29;;;;;;;49.08;4.90;;;;;;;;;;4970046;28;20487;-68
2022/07/18 09:43:56;;;;;;;57.58;5.90;;;;;;;;;;4972168;28;20051;-66
2022/07/18 09:46:23;;;;;;;34.88;3.80;;;;;;;;;;4966239;28;20038;-65
2022/07/18 09:49:09;;;;;;;30.40;4.03;;;;;;;;;;4968031;28;20039;-68
2022/07/18 09:51:36;;;;;;;28.08;3.72;;;;;;;;;;4953904;28;20451;-64
2022/07/18 09:54:03;;;;;;;33.95;4.13;;;;;;;;;;4967314;28;20091;-63
2022/07/18 09:56:30;;;;;;;85.40;6.63;;;;;;;;;;4968115;28;20083;-67
2022/07/18 09:58:57;;;;;;;41.00;5.38;;;;;;;;;;4960553;28;20039;-64
2022/07/18 10:01:23;;;;;;;43.00;4.38;;;;;;;;;;4966163;28;20566;-67
2022/07/18 10:03:50;;;;;;;25.88;4.60;;;;;;;;;;4967951;28;20042;-65
2022/07/18 10:06:18;;;;;;;35.45;4.65;;;;;;;;;;4968186;28;20056;-65
2022/07/18 10:08:45;;;;;;;46.28;6.13;;;;;;;;;;4968115;28;20039;-64
2022/07/18 10:11:11;;;;;;;35.47;5.40;;;;;;;;;;4971494;28;20479;-64
2022/07/18 10:13:38;;;;;;;16.75;2.78;;;;;;;;;;4970154;28;20047;-63
2022/07/18 10:16:05;;;;;;;10.98;3.90;;;;;;;;;;4968430;28;20050;-64
2022/07/18 10:18:33;;;;;;;67.03;7.05;;;;;;;;;;4967534;28;20058;-65
2022/07/18 10:21:00;;;;;;;20.92;3.80;;;;;;;;;;4967902;28;20038;-64
2022/07/18 10:23:26;;;;;;;36.75;4.28;;;;;;;;;;4969512;28;20126;-64
2022/07/18 10:26:14;;;;;;;27.92;3.38;;;;;;;;;;4971990;28;20083;-64
2022/07/18 10:28:59;;;;;;;30.08;3.53;;;;;;;;;;4970040;28;20430;-64
2022/07/18 10:31:25;;;;;;;32.22;3.92;;;;;;;;;;4967159;28;20129;-62
2022/07/18 10:33:53;;;;;;;9.15;2.40;;;;;;;;;;4967943;28;20089;-62
2022/07/18 10:36:21;;;;;;;44.10;5.25;;;;;;;;;;4968171;28;20047;-62
2022/07/18 10:39:07;;;;;;;99.05;8.05;;;;;;;;;;4965789;28;20081;-62
2022/07/18 10:42:02;;;;;;;64.57;5.40;;;;;;;;;;4966276;28;20057;-65
2022/07/18 10:44:31;;;;;;;67.25;5.93;;;;;;;;;;4966146;28;20064;-64
2022/07/18 10:47:17;;;;;;;52.10;5.07;;;;;;;;;;4942327;28;20043;-62
2022/07/18 10:49:49;;;;;;;42.47;4.55;;;;;;;;;;4968849;28;20050;-65
2022/07/18 10:52:26;;;;;;;52.33;4.75;;;;;;;;;;4965821;28;20125;-62
2022/07/18 10:55:05;;;;;;;106.18;8.20;;;;;;;;;;4964937;28;20507;-63
2022/07/18 10:57:31;;;;;;;59.08;5.25;;;;;;;;;;4959910;28;20034;-64
2022/07/18 11:00:07;;;;;;;31.70;3.33;;;;;;;;;;4968387;28;20591;-64
2022/07/18 11:02:39;;;;;;;39.67;3.70;;;;;;;;;;4968021;28;20071;-65
2022/07/18 11:05:24;;;;;;;44.10;4.38;;;;;;;;;;4970471;28;20101;-65
2022/07/18 11:08:03;;;;;;;14.45;2.95;;;;;;;;;;4975536;28;20074;-64
2022/07/18 11:10:46;;;;;;;34.92;4.07;;;;;;;;;;4971739;28;20545;-64
2022/07/18 11:13:35;;;;;;;29.80;4.03;;;;;;;;;;4971545;28;20129;-65
2022/07/18 11:16:04;;;;;;;53.72;5.43;;;;;;;;;;4971549;28;20039;-65
2022/07/18 11:18:32;;;;;;;25.67;3.33;;;;;;;;;;4954304;28;20046;-64
2022/07/18 11:20:58;;;;;;;16.50;2.78;;;;;;;;;;4971324;28;20035;-65
2022/07/18 11:23:26;;;;;;;36.28;3.80;;;;;;;;;;4972585;28;20059;-65
2022/07/18 11:25:57;;;;;;;242.32;14.60;;;;;;;;;;4975685;28;20376;-65
2022/07/18 11:28:26;;;;;;;31.55;3.67;;;;;;;;;;4971683;28;20510;-65
2022/07/18 11:31:00;;;;;;;35.42;4.07;;;;;;;;;;4970874;28;20035;-65
2022/07/18 11:33:28;;;;;;;24.02;3.38;;;;;;;;;;4970782;28;20113;-66
2022/07/18 11:36:04;;;;;;;74.80;5.78;;;;;;;;;;4970900;28;20467;-68
2022/07/18 11:38:31;;;;;;;50.65;4.95;;;;;;;;;;4970025;28;20464;-66
2022/07/18 11:40:57;;;;;;;36.65;3.97;;;;;;;;;;4975721;28;20131;-67
2022/07/18 11:43:25;;;;;;;22.73;3.30;;;;;;;;;;4970804;28;20126;-66
2022/07/18 11:45:59;;;;;;;20.63;3.08;;;;;;;;;;4968903;28;20043;-66
2022/07/18 11:48:26;;;;;;;29.35;3.70;;;;;;;;;;4970926;28;20141;-66
2022/07/18 11:50:52;;;;;;;34.03;3.60;;;;;;;;;;4970600;28;20073;-66
2022/07/18 11:53:19;;;;;;;49.15;5.05;;;;;;;;;;4972369;28;20098;-66
2022/07/18 11:55:45;;;;;;;42.97;4.43;;;;;;;;;;4963517;28;20043;-65
2022/07/18 11:58:13;;;;;;;19.08;3.03;;;;;;;;;;4968240;28;20073;-65
2022/07/18 12:00:40;;;;;;;53.47;5.00;;;;;;;;;;4970009;28;20125;-65
2022/07/18 12:03:12;;;;;;;21.55;3.15;;;;;;;;;;4970946;28;20372;-66
2022/07/18 12:05:42;;;;;;;25.50;3.58;;;;;;;;;;4970426;28;20043;-66
2022/07/18 12:08:24;;;;;;;31.17;4.07;;;;;;;;;;4974082;28;20502;-67
2022/07/18 12:11:04;;;;;;;26.98;3.67;;;;;;;;;;4974361;28;20459;-65
2022/07/18 12:13:40;;;;;;;35.47;3.85;;;;;;;;;;4970347;28;20503;-65
2022/07/18 12:16:07;;;;;;;24.30;3.22;;;;;;;;;;4970270;28;20035;-66
2022/07/18 12:18:33;;;;;;;33.45;3.00;;;;;;;;;;4969959;28;20039;-66
2022/07/18 12:21:07;;;;;;;48.70;4.50;;;;;;;;;;4970019;28;20490;-66
2022/07/18 12:23:33;;;;;;;64.05;7.95;;;;;;;;;;4970326;28;20051;-66
2022/07/18 12:26:01;;;;;;;30.27;3.70;;;;;;;;;;4974679;28;20444;-67
2022/07/18 12:28:28;;;;;;;127.93;9.43;;;;;;;;;;4970056;28;20070;-66
2022/07/18 12:30:55;;;;;;;21.20;3.20;;;;;;;;;;4970273;28;20039;-66
2022/07/18 12:33:26;;;;;;;33.60;4.30;;;;;;;;;;4970073;28;20039;-66
2022/07/18 12:35:57;;;;;;;99.47;6.57;;;;;;;;;;4970193;28;20515;-65
2022/07/18 12:38:24;;;;;;;28.38;3.35;;;;;;;;;;4966513;28;20047;-66
2022/07/18 12:40:57;;;;;;;22.85;2.72;;;;;;;;;;4972778;28;20534;-66
2022/07/18 12:43:24;;;;;;;;;;;;;;;;;;4970194;28;20050;-66
2022/07/18 12:45:51;;;;;;;33.75;3.47;;;;;;;;;;4968000;28;19980;-66
2022/07/18 12:48:17;;;;;;;22.60;3.55;;;;;;;;;;4969842;28;20043;-66
2022/07/18 12:50:44;;;;;;;113.00;9.15;;;;;;;;;;4969977;28;20090;-66
2022/07/18 12:53:12;;;;;;;58.72;5.63;;;;;;;;;;4954237;28;20071;-66
2022/07/18 12:55:39;;;;;;;53.38;4.90;;;;;;;;;;4969506;28;20086;-66
2022/07/18 12:58:06;;;;;;;12.38;2.88;;;;;;;;;;4969406;28;20415;-66
2022/07/18 13:00:33;;;;;;;49.58;4.88;;;;;;;;;;4969624;28;20086;-66
2022/07/18 13:02:59;;;;;;;38.83;4.30;;;;;;;;;;4969264;28;20451;-66
2022/07/18 13:05:27;;;;;;;27.35;3.55;;;;;;;;;;4971230;28;20079;-67
2022/07/18 13:07:54;;;;;;;28.92;3.60;;;;;;;;;;4972608;28;20070;-66
2022/07/18 13:10:21;;;;;;;25.60;3.70;;;;;;;;;;4969276;28;20089;-66
2022/07/18 13:12:47;;;;;;;44.50;4.80;;;;;;;;;;4968998;28;20129;-67
2022/07/18 13:15:14;;;;;;;25.30;3.03;;;;;;;;;;4969564;28;20038;-66
2022/07/18 13:17:40;;;;;;;51.25;4.72;;;;;;;;;;4969125;28;20086;-66
2022/07/18 13:20:07;;;;;;;21.40;2.95;;;;;;;;;;4972862;28;20400;-66
2022/07/18 13:22:37;;;;;;;60.15;5.72;;;;;;;;;;4968843;28;20123;-66
2022/07/18 13:25:05;;;;;;;30.65;4.05;;;;;;;;;;4962208;28;20071;-60
2022/07/18 13:27:31;;;;;;;99.25;7.40;;;;;;;;;;4953802;28;20043;-63
2022/07/18 13:30:00;;;;;;;34.58;3.67;;;;;;;;;;4968645;28;20488;-64
2022/07/18 13:32:30;;;;;;;38.53;3.95;;;;;;;;;;4970130;28;20055;-64
2022/07/18 13:34:57;;;;;;;38.70;4.03;;;;;;;;;;4958616;28;20052;-63
2022/07/18 13:37:23;;;;;;;69.03;5.93;;;;;;;;;;4965577;28;20078;-63
2022/07/18 13:39:50;;;;;;;43.42;4.32;;;;;;;;;;4968630;28;20110;-62
2022/07/18 13:42:17;;;;;;;37.30;3.75;;;;;;;;;;4968112;28;20113;-61
2022/07/18 13:44:45;;;;;;;42.33;4.00;;;;;;;;;;4968251;28;20122;-64
2022/07/18 13:47:12;;;;;;;27.83;3.15;;;;;;;;;;4969771;28;20464;-61
2022/07/18 13:49:39;;;;;;;15.93;2.58;;;;;;;;;;4970243;28;20566;-63
2022/07/18 13:52:05;;;;;;;79.25;6.68;;;;;;;;;;4963583;28;20507;-63
2022/07/18 13:54:36;;;;;;;49.33;4.60;;;;;;;;;;4960419;28;20047;-63
2022/07/18 13:57:03;;;;;;;23.55;3.10;;;;;;;;;;4968320;28;20049;-63
2022/07/18 13:59:30;;;;;;;48.58;4.28;;;;;;;;;;4969311;28;20035;-62
2022/07/18 14:01:56;;;;;;;25.67;3.28;;;;;;;;;;4972347;28;20050;-64
2022/07/18 14:04:23;;;;;;;23.98;2.90;;;;;;;;;;4968378;28;20105;-63
2022/07/18 14:06:51;;;;;;;41.92;3.92;;;;;;;;;;4967550;28;20035;-62
2022/07/18 14:09:18;;;;;;;38.13;3.88;;;;;;;;;;4967900;28;20121;-63
2022/07/18 14:11:44;;;;;;;22.55;2.58;;;;;;;;;;4967898;28;20039;-63
2022/07/18 14:14:11;;;;;;;43.85;4.15;;;;;;;;;;4971484;28;20074;-64
2022/07/18 14:16:38;;;;;;;37.38;4.30;;;;;;;;;;4969292;28;20050;-64
2022/07/18 14:19:04;;;;;;;28.02;3.28;;;;;;;;;;4967694;28;20035;-62
2022/07/18 14:21:31;;;;;;;43.70;4.63;;;;;;;;;;4968122;28;20097;-62
2022/07/18 14:23:58;;;;;;;25.95;3.03;;;;;;;;;;4967598;28;20515;-64
2022/07/18 14:26:25;;;;;;;124.40;8.95;;;;;;;;;;4969496;28;20142;-61
2022/07/18 14:28:52;;;;;;;30.17;3.53;;;;;;;;;;4971040;28;20054;-62
2022/07/18 14:31:19;;;;;;;23.80;2.85;;;;;;;;;;4951732;28;20126;-61
2022/07/18 14:33:47;;;;;;;32.58;3.25;;;;;;;;;;4955200;28;20491;-67
2022/07/18 14:36:14;;;;;;;36.92;3.22;;;;;;;;;;4967358;28;20039;-69
2022/07/18 14:38:41;;;;;;;45.05;4.60;;;;;;;;;;4966906;28;20031;-65
2022/07/18 14:41:07;;;;;;;26.17;3.03;;;;;;;;;;4972702;28;20034;-63